KLM2642 EHAM-LEBB
Flight info
| Callsign | KLM2642 |
|---|---|
| Flight time | 1h 56m |
| Altitude | 23000 |
| Route | WOODY N872 CIV/N0453F350 N872 MEDIL DCT KOVIN DCT DUCRA UM728 RESMI UN857 DISAK DCT ARKIP DCT ARNAV DCT LMG DCT UVELI DCT OSMOB DCT VAVIX/N0404F230 DCT BTZ DCT URUNA P181 SSN L176 CEGAM |
| Aircraft | B738/M-SDE2E3FGHIRWXY/LB1 |
Departure
| Time | 2026-04-27 08:37 |
|---|---|
| Airport | Amsterdam Airport Schiphol (EHAM) |
Arrival
| Time | 2026-04-27 10:33 |
|---|---|
| Airport | Bilbao Airport (LEBB) |
| Time | Latitude | Longitude | Altitude | Speed | Heading |
|---|---|---|---|---|---|
| 2026-04-27 08:09 | 52.31002 | 4.77019 | -2 ft | 0 kts | 178° |
| 2026-04-27 08:23 | 52.31017 | 4.77019 | -2 ft | 4 kts | 182° |
| 2026-04-27 08:23 | 52.31044 | 4.77024 | -2 ft | 4 kts | 194° |
| 2026-04-27 08:23 | 52.31069 | 4.77039 | -2 ft | 4 kts | 220° |
| 2026-04-27 08:24 | 52.31081 | 4.77068 | -2 ft | 2 kts | 273° |
| 2026-04-27 08:24 | 52.31080 | 4.77077 | -2 ft | 0 kts | 273° |
| 2026-04-27 08:26 | 52.31082 | 4.77027 | -2 ft | 10 kts | 273° |
| 2026-04-27 08:27 | 52.31113 | 4.76947 | -2 ft | 9 kts | 336° |
| 2026-04-27 08:27 | 52.31171 | 4.76965 | -2 ft | 9 kts | 32° |
| 2026-04-27 08:27 | 52.31223 | 4.77020 | -2 ft | 9 kts | 33° |
| 2026-04-27 08:27 | 52.31273 | 4.77073 | -2 ft | 8 kts | 33° |
| 2026-04-27 08:28 | 52.31321 | 4.77126 | -2 ft | 8 kts | 34° |
| 2026-04-27 08:28 | 52.31370 | 4.77178 | -2 ft | 8 kts | 27° |
| 2026-04-27 08:28 | 52.31428 | 4.77193 | -2 ft | 9 kts | 4° |
| 2026-04-27 08:28 | 52.31490 | 4.77198 | -2 ft | 9 kts | 3° |
| 2026-04-27 08:29 | 52.31554 | 4.77183 | -2 ft | 10 kts | 330° |
| 2026-04-27 08:29 | 52.31571 | 4.77112 | -2 ft | 7 kts | 261° |
| 2026-04-27 08:29 | 52.31566 | 4.77022 | -2 ft | 11 kts | 266° |
| 2026-04-27 08:29 | 52.31561 | 4.76881 | -2 ft | 13 kts | 267° |
| 2026-04-27 08:30 | 52.31556 | 4.76726 | -2 ft | 14 kts | 267° |
| 2026-04-27 08:30 | 52.31550 | 4.76567 | -2 ft | 14 kts | 266° |
| 2026-04-27 08:30 | 52.31545 | 4.76414 | -2 ft | 13 kts | 267° |
| 2026-04-27 08:30 | 52.31540 | 4.76267 | -2 ft | 13 kts | 266° |
| 2026-04-27 08:31 | 52.31535 | 4.76124 | -2 ft | 12 kts | 266° |
| 2026-04-27 08:31 | 52.31530 | 4.75984 | -2 ft | 12 kts | 266° |
| 2026-04-27 08:31 | 52.31525 | 4.75846 | -2 ft | 13 kts | 266° |
| 2026-04-27 08:31 | 52.31520 | 4.75700 | -2 ft | 13 kts | 266° |
| 2026-04-27 08:32 | 52.31514 | 4.75548 | -2 ft | 14 kts | 266° |
| 2026-04-27 08:32 | 52.31509 | 4.75390 | -2 ft | 14 kts | 266° |
| 2026-04-27 08:32 | 52.29285 | 4.74714 | 0 ft | 0 kts | 57° |
| 2026-04-27 08:35 | 52.29286 | 4.74718 | 0 ft | 4 kts | 56° |
| 2026-04-27 08:36 | 52.29404 | 4.74986 | -3 ft | 60 kts | 56° |
| 2026-04-27 08:36 | 52.29738 | 4.75873 | -3 ft | 116 kts | 58° |
| 2026-04-27 08:36 | 52.30234 | 4.77199 | 57 ft | 151 kts | 59° |
| 2026-04-27 08:36 | 52.30618 | 4.78782 | 497 ft | 152 kts | 88° |
| 2026-04-27 08:37 | 52.30572 | 4.80552 | 948 ft | 158 kts | 99° |
| 2026-04-27 08:37 | 52.29943 | 4.82051 | 1276 ft | 175 kts | 151° |
| 2026-04-27 08:37 | 52.28817 | 4.82768 | 1889 ft | 172 kts | 156° |
| 2026-04-27 08:37 | 52.27651 | 4.83512 | 2197 ft | 189 kts | 156° |
| 2026-04-27 08:38 | 52.26361 | 4.84291 | 2534 ft | 203 kts | 159° |
| 2026-04-27 08:38 | 52.24960 | 4.84939 | 2775 ft | 219 kts | 175° |
| 2026-04-27 08:38 | 52.23355 | 4.84885 | 2849 ft | 244 kts | 184° |
| 2026-04-27 08:38 | 52.21591 | 4.84719 | 3123 ft | 260 kts | 181° |
| 2026-04-27 08:39 | 52.19764 | 4.84669 | 3679 ft | 264 kts | 178° |
| 2026-04-27 08:39 | 52.17922 | 4.84671 | 4303 ft | 266 kts | 180° |
| 2026-04-27 08:39 | 52.16058 | 4.84621 | 4888 ft | 270 kts | 180° |
| 2026-04-27 08:39 | 52.14283 | 4.84572 | 5434 ft | 273 kts | 180° |
| 2026-04-27 08:40 | 52.12377 | 4.84522 | 6069 ft | 273 kts | 181° |
| 2026-04-27 08:40 | 52.11099 | 4.84492 | 6555 ft | 272 kts | 181° |
| 2026-04-27 08:40 | 52.08565 | 4.84435 | 7314 ft | 277 kts | 181° |
| 2026-04-27 08:40 | 52.06626 | 4.84395 | 7911 ft | 280 kts | 181° |
| 2026-04-27 08:41 | 52.04673 | 4.84355 | 8523 ft | 282 kts | 181° |
| 2026-04-27 08:41 | 52.03340 | 4.84327 | 8962 ft | 284 kts | 182° |
| 2026-04-27 08:41 | 52.01385 | 4.83854 | 9534 ft | 285 kts | 204° |
| 2026-04-27 08:41 | 51.99625 | 4.82457 | 10203 ft | 286 kts | 208° |
| 2026-04-27 08:42 | 51.97826 | 4.81000 | 10651 ft | 296 kts | 207° |
| 2026-04-27 08:42 | 51.95906 | 4.79473 | 10791 ft | 317 kts | 207° |
| 2026-04-27 08:42 | 51.93869 | 4.77869 | 10992 ft | 334 kts | 207° |
| 2026-04-27 08:42 | 51.91750 | 4.76208 | 11451 ft | 341 kts | 207° |
| 2026-04-27 08:43 | 51.89606 | 4.74533 | 12098 ft | 343 kts | 207° |
| 2026-04-27 08:43 | 51.87459 | 4.72856 | 12770 ft | 344 kts | 207° |
| 2026-04-27 08:43 | 51.85293 | 4.71166 | 13429 ft | 347 kts | 207° |
| 2026-04-27 08:43 | 51.83109 | 4.69462 | 14074 ft | 350 kts | 207° |
| 2026-04-27 08:44 | 51.80902 | 4.67742 | 14674 ft | 353 kts | 208° |
| 2026-04-27 08:44 | 51.78680 | 4.66011 | 15259 ft | 357 kts | 208° |
| 2026-04-27 08:44 | 51.76503 | 4.64316 | 15842 ft | 360 kts | 208° |
| 2026-04-27 08:44 | 51.74223 | 4.62544 | 16407 ft | 364 kts | 208° |
| 2026-04-27 08:45 | 51.71928 | 4.60762 | 16990 ft | 368 kts | 209° |
| 2026-04-27 08:45 | 51.69609 | 4.58963 | 17551 ft | 372 kts | 209° |
| 2026-04-27 08:45 | 51.67262 | 4.57146 | 18138 ft | 375 kts | 210° |
| 2026-04-27 08:45 | 51.64899 | 4.55317 | 18698 ft | 379 kts | 210° |
| 2026-04-27 08:46 | 51.62521 | 4.53477 | 19228 ft | 381 kts | 210° |
| 2026-04-27 08:46 | 51.60127 | 4.51626 | 19788 ft | 382 kts | 210° |
| 2026-04-27 08:46 | 51.57728 | 4.49773 | 20316 ft | 384 kts | 210° |
| 2026-04-27 08:46 | 51.55310 | 4.47907 | 20842 ft | 386 kts | 210° |
| 2026-04-27 08:47 | 51.52882 | 4.46036 | 21354 ft | 388 kts | 209° |
| 2026-04-27 08:47 | 51.50442 | 4.44157 | 21853 ft | 390 kts | 209° |
| 2026-04-27 08:47 | 51.47983 | 4.42265 | 22315 ft | 393 kts | 209° |
| 2026-04-27 08:47 | 51.45504 | 4.40359 | 22744 ft | 397 kts | 209° |
| 2026-04-27 08:48 | 51.43036 | 4.38466 | 23212 ft | 399 kts | 209° |
| 2026-04-27 08:48 | 51.40488 | 4.36515 | 23697 ft | 402 kts | 209° |
| 2026-04-27 08:48 | 51.37952 | 4.34603 | 24120 ft | 404 kts | 208° |
| 2026-04-27 08:48 | 51.35430 | 4.32725 | 24524 ft | 405 kts | 209° |
| 2026-04-27 08:49 | 51.32868 | 4.30819 | 24944 ft | 406 kts | 209° |
| 2026-04-27 08:49 | 51.30302 | 4.28902 | 25345 ft | 408 kts | 209° |
| 2026-04-27 08:49 | 51.27739 | 4.26956 | 25728 ft | 409 kts | 210° |
| 2026-04-27 08:49 | 51.25169 | 4.24992 | 26083 ft | 411 kts | 210° |
| 2026-04-27 08:50 | 51.22585 | 4.23018 | 26431 ft | 413 kts | 210° |
| 2026-04-27 08:50 | 51.19987 | 4.21043 | 26800 ft | 414 kts | 210° |
| 2026-04-27 08:50 | 51.17382 | 4.19069 | 27174 ft | 415 kts | 209° |
| 2026-04-27 08:50 | 51.14709 | 4.17255 | 27508 ft | 420 kts | 205° |
| 2026-04-27 08:51 | 51.11948 | 4.15716 | 27855 ft | 422 kts | 203° |
| 2026-04-27 08:51 | 51.09155 | 4.14245 | 28186 ft | 424 kts | 202° |
| 2026-04-27 08:51 | 51.06350 | 4.12777 | 28516 ft | 425 kts | 203° |
| 2026-04-27 08:51 | 51.03542 | 4.11288 | 28867 ft | 426 kts | 203° |
| 2026-04-27 08:52 | 51.00729 | 4.09775 | 29207 ft | 426 kts | 204° |
| 2026-04-27 08:52 | 50.97913 | 4.08246 | 29532 ft | 428 kts | 204° |
| 2026-04-27 08:52 | 50.95094 | 4.06710 | 29825 ft | 430 kts | 204° |
| 2026-04-27 08:52 | 50.92262 | 4.05168 | 30099 ft | 431 kts | 204° |
| 2026-04-27 08:53 | 50.89419 | 4.03624 | 30369 ft | 433 kts | 204° |
| 2026-04-27 08:53 | 50.86615 | 4.02052 | 30617 ft | 432 kts | 205° |
| 2026-04-27 08:53 | 50.83783 | 4.00289 | 30937 ft | 431 kts | 207° |
| 2026-04-27 08:53 | 50.81058 | 3.98513 | 31281 ft | 429 kts | 207° |
| 2026-04-27 08:54 | 50.78308 | 3.96705 | 31586 ft | 427 kts | 207° |
| 2026-04-27 08:54 | 50.75567 | 3.94914 | 31880 ft | 427 kts | 207° |
| 2026-04-27 08:54 | 50.72818 | 3.93135 | 32162 ft | 427 kts | 207° |
| 2026-04-27 08:54 | 50.70072 | 3.91372 | 32454 ft | 426 kts | 206° |
| 2026-04-27 08:55 | 50.67324 | 3.89617 | 32779 ft | 425 kts | 206° |
| 2026-04-27 08:55 | 50.64586 | 3.87872 | 33069 ft | 424 kts | 206° |
| 2026-04-27 08:55 | 50.61852 | 3.86132 | 33334 ft | 424 kts | 206° |
| 2026-04-27 08:55 | 50.59117 | 3.84393 | 33622 ft | 423 kts | 206° |
| 2026-04-27 08:56 | 50.56392 | 3.82651 | 33900 ft | 421 kts | 207° |
| 2026-04-27 08:56 | 50.53701 | 3.80843 | 34179 ft | 420 kts | 208° |
| 2026-04-27 08:56 | 50.51029 | 3.79003 | 34390 ft | 420 kts | 208° |
| 2026-04-27 08:56 | 50.48351 | 3.77150 | 34579 ft | 420 kts | 208° |
| 2026-04-27 08:57 | 50.42985 | 3.73467 | 34937 ft | 421 kts | 208° |
| 2026-04-27 08:57 | 50.40336 | 3.71664 | 35129 ft | 421 kts | 208° |
| 2026-04-27 08:57 | 50.37644 | 3.69836 | 35246 ft | 422 kts | 208° |
| 2026-04-27 08:58 | 50.34940 | 3.68001 | 35236 ft | 425 kts | 207° |
| 2026-04-27 08:58 | 50.29532 | 3.64345 | 35248 ft | 422 kts | 207° |
| 2026-04-27 08:59 | 50.24163 | 3.60724 | 35248 ft | 418 kts | 207° |
| 2026-04-27 08:59 | 50.18829 | 3.57130 | 35250 ft | 416 kts | 207° |
| 2026-04-27 09:00 | 50.13525 | 3.53564 | 35231 ft | 415 kts | 207° |
| 2026-04-27 09:00 | 50.08226 | 3.50009 | 35245 ft | 414 kts | 207° |
| 2026-04-27 09:01 | 50.02923 | 3.46461 | 35258 ft | 415 kts | 207° |
| 2026-04-27 09:01 | 49.97606 | 3.42912 | 35255 ft | 417 kts | 207° |
| 2026-04-27 09:02 | 49.92254 | 3.39348 | 35256 ft | 419 kts | 207° |
| 2026-04-27 09:02 | 49.86882 | 3.35780 | 35251 ft | 421 kts | 207° |
| 2026-04-27 09:03 | 49.81523 | 3.32230 | 35246 ft | 422 kts | 207° |
| 2026-04-27 09:03 | 49.76106 | 3.28650 | 35252 ft | 423 kts | 207° |
| 2026-04-27 09:04 | 49.70687 | 3.25077 | 35243 ft | 424 kts | 207° |
| 2026-04-27 09:04 | 49.65268 | 3.21514 | 35241 ft | 423 kts | 207° |
| 2026-04-27 09:05 | 49.59865 | 3.17968 | 35243 ft | 422 kts | 207° |
| 2026-04-27 09:05 | 49.54471 | 3.14436 | 35249 ft | 421 kts | 207° |
| 2026-04-27 09:06 | 49.49097 | 3.10898 | 35247 ft | 419 kts | 209° |
| 2026-04-27 09:06 | 49.44226 | 3.06265 | 35235 ft | 413 kts | 217° |
| 2026-04-27 09:07 | 49.39460 | 3.01356 | 35230 ft | 412 kts | 217° |
| 2026-04-27 09:07 | 49.34689 | 2.96492 | 35236 ft | 411 kts | 217° |
| 2026-04-27 09:08 | 49.29911 | 2.91658 | 35244 ft | 411 kts | 217° |
| 2026-04-27 09:08 | 49.25143 | 2.86851 | 35229 ft | 410 kts | 217° |
| 2026-04-27 09:09 | 49.20369 | 2.82050 | 35231 ft | 411 kts | 217° |
| 2026-04-27 09:09 | 49.15581 | 2.77243 | 35241 ft | 411 kts | 217° |
| 2026-04-27 09:10 | 49.10789 | 2.72445 | 35237 ft | 412 kts | 217° |
| 2026-04-27 09:10 | 49.05991 | 2.67652 | 35242 ft | 413 kts | 217° |
| 2026-04-27 09:11 | 49.01179 | 2.62854 | 35240 ft | 413 kts | 216° |
| 2026-04-27 09:11 | 48.96362 | 2.58066 | 35237 ft | 414 kts | 216° |
| 2026-04-27 09:12 | 48.91541 | 2.53283 | 35243 ft | 413 kts | 216° |
| 2026-04-27 09:12 | 48.86720 | 2.48509 | 35237 ft | 413 kts | 216° |
| 2026-04-27 09:13 | 48.81903 | 2.43746 | 35238 ft | 413 kts | 216° |
| 2026-04-27 09:13 | 48.77092 | 2.39001 | 35238 ft | 412 kts | 216° |
| 2026-04-27 09:14 | 48.72315 | 2.34301 | 35235 ft | 411 kts | 216° |
| 2026-04-27 09:14 | 48.67519 | 2.29591 | 35239 ft | 411 kts | 216° |
| 2026-04-27 09:15 | 48.62723 | 2.24891 | 35222 ft | 410 kts | 216° |
| 2026-04-27 09:15 | 48.57876 | 2.20351 | 35226 ft | 412 kts | 210° |
| 2026-04-27 09:16 | 48.52397 | 2.17609 | 35239 ft | 419 kts | 196° |
| 2026-04-27 09:16 | 48.46667 | 2.15851 | 35225 ft | 420 kts | 196° |
| 2026-04-27 09:17 | 48.40946 | 2.14058 | 35201 ft | 420 kts | 196° |
| 2026-04-27 09:17 | 48.35241 | 2.12227 | 35209 ft | 419 kts | 196° |
| 2026-04-27 09:18 | 48.29511 | 2.10523 | 35210 ft | 423 kts | 190° |
| 2026-04-27 09:18 | 48.23586 | 2.10875 | 35220 ft | 432 kts | 176° |
| 2026-04-27 09:19 | 48.17641 | 2.12273 | 35202 ft | 432 kts | 176° |
| 2026-04-27 09:19 | 48.11744 | 2.13002 | 35206 ft | 424 kts | 189° |
| 2026-04-27 09:20 | 48.05930 | 2.11873 | 35205 ft | 421 kts | 192° |
| 2026-04-27 09:20 | 48.00116 | 2.10676 | 35215 ft | 422 kts | 192° |
| 2026-04-27 09:21 | 47.94292 | 2.09529 | 35205 ft | 423 kts | 192° |
| 2026-04-27 09:21 | 47.88453 | 2.08405 | 35216 ft | 423 kts | 192° |
| 2026-04-27 09:22 | 47.82607 | 2.07285 | 35210 ft | 424 kts | 192° |
| 2026-04-27 09:22 | 47.76754 | 2.06166 | 35179 ft | 424 kts | 192° |
| 2026-04-27 09:23 | 47.70902 | 2.05048 | 35195 ft | 424 kts | 192° |
| 2026-04-27 09:23 | 47.65040 | 2.03926 | 35191 ft | 424 kts | 193° |
| 2026-04-27 09:24 | 47.59461 | 2.01502 | 35207 ft | 416 kts | 206° |
| 2026-04-27 09:24 | 47.54083 | 1.98293 | 35196 ft | 417 kts | 205° |
| 2026-04-27 09:25 | 47.48694 | 1.95128 | 35192 ft | 417 kts | 205° |
| 2026-04-27 09:25 | 47.43292 | 1.91996 | 35189 ft | 417 kts | 205° |
| 2026-04-27 09:26 | 47.37880 | 1.88873 | 35189 ft | 417 kts | 205° |
| 2026-04-27 09:26 | 47.32472 | 1.85760 | 35207 ft | 417 kts | 205° |
| 2026-04-27 09:27 | 47.27062 | 1.82650 | 35217 ft | 417 kts | 205° |
| 2026-04-27 09:27 | 47.22563 | 1.80069 | 35210 ft | 418 kts | 205° |
| 2026-04-27 09:28 | 47.16250 | 1.76480 | 35193 ft | 418 kts | 205° |
| 2026-04-27 09:28 | 47.10818 | 1.73431 | 35184 ft | 418 kts | 205° |
| 2026-04-27 09:29 | 47.05383 | 1.70384 | 35184 ft | 419 kts | 205° |
| 2026-04-27 09:29 | 47.00823 | 1.67829 | 35183 ft | 419 kts | 205° |
| 2026-04-27 09:30 | 46.95374 | 1.64781 | 35176 ft | 419 kts | 205° |
| 2026-04-27 09:30 | 46.89966 | 1.61762 | 35188 ft | 419 kts | 204° |
| 2026-04-27 09:31 | 46.84519 | 1.58729 | 35183 ft | 419 kts | 204° |
| 2026-04-27 09:31 | 46.79077 | 1.55704 | 35181 ft | 418 kts | 204° |
| 2026-04-27 09:32 | 46.73642 | 1.52689 | 35181 ft | 418 kts | 204° |
| 2026-04-27 09:32 | 46.68215 | 1.49686 | 35181 ft | 417 kts | 204° |
| 2026-04-27 09:33 | 46.62798 | 1.46695 | 35180 ft | 417 kts | 204° |
| 2026-04-27 09:33 | 46.57371 | 1.43704 | 35178 ft | 416 kts | 204° |
| 2026-04-27 09:34 | 46.51956 | 1.40726 | 35173 ft | 416 kts | 204° |
| 2026-04-27 09:34 | 46.46543 | 1.37755 | 35180 ft | 416 kts | 204° |
| 2026-04-27 09:35 | 46.41121 | 1.34786 | 35178 ft | 417 kts | 204° |
| 2026-04-27 09:35 | 46.35686 | 1.31816 | 35164 ft | 417 kts | 204° |
| 2026-04-27 09:36 | 46.30244 | 1.28849 | 35172 ft | 418 kts | 204° |
| 2026-04-27 09:36 | 46.24793 | 1.25883 | 35178 ft | 419 kts | 204° |
| 2026-04-27 09:37 | 46.19367 | 1.22938 | 35177 ft | 420 kts | 204° |
| 2026-04-27 09:37 | 46.13889 | 1.19970 | 35158 ft | 421 kts | 204° |
| 2026-04-27 09:38 | 46.08405 | 1.17005 | 35168 ft | 421 kts | 204° |
| 2026-04-27 09:38 | 46.02870 | 1.14019 | 35163 ft | 422 kts | 204° |
| 2026-04-27 09:39 | 45.97412 | 1.11080 | 35157 ft | 422 kts | 204° |
| 2026-04-27 09:39 | 45.91913 | 1.08126 | 35153 ft | 421 kts | 204° |
| 2026-04-27 09:40 | 45.86428 | 1.05184 | 35158 ft | 421 kts | 203° |
| 2026-04-27 09:40 | 45.81096 | 1.01795 | 35152 ft | 417 kts | 214° |
| 2026-04-27 09:41 | 45.76569 | 0.96713 | 35162 ft | 414 kts | 222° |
| 2026-04-27 09:41 | 45.72179 | 0.91376 | 35171 ft | 414 kts | 222° |
| 2026-04-27 09:42 | 45.67766 | 0.86061 | 35160 ft | 415 kts | 222° |
| 2026-04-27 09:42 | 45.63328 | 0.80758 | 35166 ft | 416 kts | 222° |
| 2026-04-27 09:43 | 45.58882 | 0.75468 | 35173 ft | 416 kts | 221° |
| 2026-04-27 09:43 | 45.54420 | 0.70172 | 35153 ft | 417 kts | 221° |
| 2026-04-27 09:44 | 45.49981 | 0.64915 | 35164 ft | 417 kts | 221° |
| 2026-04-27 09:44 | 45.45514 | 0.59635 | 35154 ft | 417 kts | 221° |
| 2026-04-27 09:45 | 45.41036 | 0.54353 | 35158 ft | 417 kts | 221° |
| 2026-04-27 09:45 | 45.36565 | 0.49090 | 35146 ft | 417 kts | 221° |
| 2026-04-27 09:46 | 45.32090 | 0.43834 | 35155 ft | 417 kts | 221° |
| 2026-04-27 09:46 | 45.27615 | 0.38589 | 35157 ft | 417 kts | 221° |
| 2026-04-27 09:47 | 45.23137 | 0.33350 | 35153 ft | 417 kts | 221° |
| 2026-04-27 09:47 | 45.18662 | 0.28127 | 35141 ft | 417 kts | 221° |
| 2026-04-27 09:48 | 45.14209 | 0.22941 | 35153 ft | 416 kts | 221° |
| 2026-04-27 09:48 | 45.09735 | 0.17738 | 35156 ft | 416 kts | 221° |
| 2026-04-27 09:49 | 45.05256 | 0.12542 | 35162 ft | 416 kts | 221° |
| 2026-04-27 09:49 | 45.00777 | 0.07360 | 35158 ft | 416 kts | 221° |
| 2026-04-27 09:50 | 44.96292 | 0.02181 | 35158 ft | 416 kts | 221° |
| 2026-04-27 09:50 | 44.91809 | -0.02987 | 35171 ft | 417 kts | 220° |
| 2026-04-27 09:51 | 44.87311 | -0.08163 | 35163 ft | 418 kts | 220° |
| 2026-04-27 09:51 | 44.82806 | -0.13336 | 35167 ft | 418 kts | 220° |
| 2026-04-27 09:52 | 44.78290 | -0.18512 | 35159 ft | 418 kts | 220° |
| 2026-04-27 09:52 | 44.73779 | -0.23672 | 35159 ft | 418 kts | 220° |
| 2026-04-27 09:53 | 44.69260 | -0.28831 | 35160 ft | 418 kts | 220° |
| 2026-04-27 09:53 | 44.64768 | -0.33931 | 35170 ft | 418 kts | 219° |
| 2026-04-27 09:54 | 44.60014 | -0.38670 | 35153 ft | 419 kts | 216° |
| 2026-04-27 09:54 | 44.55170 | -0.43241 | 35161 ft | 419 kts | 216° |
| 2026-04-27 09:55 | 44.50354 | -0.47823 | 35169 ft | 419 kts | 216° |
| 2026-04-27 09:55 | 44.43145 | -0.54733 | 35165 ft | 419 kts | 216° |
| 2026-04-27 09:56 | 44.38342 | -0.59334 | 35162 ft | 419 kts | 216° |
| 2026-04-27 09:56 | 44.33531 | -0.63933 | 35172 ft | 419 kts | 216° |
| 2026-04-27 09:57 | 44.28719 | -0.68523 | 35172 ft | 419 kts | 216° |
| 2026-04-27 09:57 | 44.23954 | -0.73221 | 35171 ft | 420 kts | 218° |
| 2026-04-27 09:58 | 44.19256 | -0.78061 | 35174 ft | 420 kts | 218° |
| 2026-04-27 09:58 | 44.14551 | -0.82898 | 35171 ft | 421 kts | 218° |
| 2026-04-27 09:59 | 44.09826 | -0.87718 | 35172 ft | 421 kts | 217° |
| 2026-04-27 09:59 | 44.05129 | -0.92486 | 35172 ft | 421 kts | 217° |
| 2026-04-27 10:00 | 44.00397 | -0.97277 | 35161 ft | 421 kts | 217° |
| 2026-04-27 10:00 | 43.95662 | -1.02063 | 35177 ft | 421 kts | 217° |
| 2026-04-27 10:01 | 43.90931 | -1.06835 | 35177 ft | 421 kts | 217° |
| 2026-04-27 10:01 | 43.86191 | -1.11607 | 35181 ft | 421 kts | 217° |
| 2026-04-27 10:02 | 43.81451 | -1.16369 | 35178 ft | 421 kts | 217° |
| 2026-04-27 10:02 | 43.76705 | -1.21127 | 35183 ft | 421 kts | 217° |
| 2026-04-27 10:03 | 43.71958 | -1.25878 | 35183 ft | 421 kts | 217° |
| 2026-04-27 10:03 | 43.67203 | -1.30626 | 35183 ft | 421 kts | 217° |
| 2026-04-27 10:04 | 43.62452 | -1.35362 | 35178 ft | 422 kts | 217° |
| 2026-04-27 10:04 | 43.57693 | -1.40097 | 35183 ft | 422 kts | 217° |
| 2026-04-27 10:05 | 43.52922 | -1.44835 | 35184 ft | 422 kts | 217° |
| 2026-04-27 10:05 | 43.48181 | -1.49615 | 35179 ft | 422 kts | 221° |
| 2026-04-27 10:06 | 43.44345 | -1.55611 | 35188 ft | 421 kts | 236° |
| 2026-04-27 10:06 | 43.41129 | -1.62385 | 34774 ft | 429 kts | 237° |
| 2026-04-27 10:07 | 43.39478 | -1.65836 | 34047 ft | 434 kts | 236° |
| 2026-04-27 10:07 | 43.37793 | -1.69310 | 33154 ft | 439 kts | 236° |
| 2026-04-27 10:07 | 43.36088 | -1.72802 | 32316 ft | 442 kts | 236° |
| 2026-04-27 10:07 | 43.34362 | -1.76327 | 31530 ft | 445 kts | 236° |
| 2026-04-27 10:08 | 43.32640 | -1.79847 | 30900 ft | 443 kts | 236° |
| 2026-04-27 10:08 | 43.30819 | -1.83260 | 30244 ft | 443 kts | 230° |
| 2026-04-27 10:08 | 43.28651 | -1.86247 | 29591 ft | 440 kts | 222° |
| 2026-04-27 10:08 | 43.26373 | -1.89022 | 28934 ft | 437 kts | 222° |
| 2026-04-27 10:09 | 43.24106 | -1.91782 | 28313 ft | 434 kts | 222° |
| 2026-04-27 10:09 | 43.21872 | -1.94522 | 27659 ft | 427 kts | 223° |
| 2026-04-27 10:09 | 43.19692 | -1.97216 | 27055 ft | 418 kts | 223° |
| 2026-04-27 10:09 | 43.17558 | -1.99865 | 26439 ft | 411 kts | 223° |
| 2026-04-27 10:10 | 43.15455 | -2.02479 | 25831 ft | 404 kts | 223° |
| 2026-04-27 10:10 | 43.13393 | -2.05042 | 25243 ft | 398 kts | 223° |
| 2026-04-27 10:10 | 43.11355 | -2.07570 | 24672 ft | 393 kts | 223° |
| 2026-04-27 10:10 | 43.09341 | -2.10065 | 24086 ft | 388 kts | 223° |
| 2026-04-27 10:11 | 43.07338 | -2.12547 | 23334 ft | 387 kts | 222° |
| 2026-04-27 10:11 | 43.05387 | -2.14963 | 22738 ft | 381 kts | 223° |
| 2026-04-27 10:11 | 43.03519 | -2.17469 | 22189 ft | 373 kts | 233° |
| 2026-04-27 10:11 | 43.02331 | -2.20571 | 21679 ft | 367 kts | 252° |
| 2026-04-27 10:12 | 43.01928 | -2.23985 | 21119 ft | 364 kts | 269° |
| 2026-04-27 10:12 | 43.02265 | -2.27387 | 20596 ft | 362 kts | 284° |
| 2026-04-27 10:12 | 43.03218 | -2.30550 | 20061 ft | 361 kts | 300° |
| 2026-04-27 10:12 | 43.04762 | -2.33243 | 19562 ft | 359 kts | 310° |
| 2026-04-27 10:13 | 43.06465 | -2.35713 | 19035 ft | 356 kts | 311° |
| 2026-04-27 10:13 | 43.08172 | -2.38159 | 18517 ft | 353 kts | 311° |
| 2026-04-27 10:13 | 43.09842 | -2.40600 | 18157 ft | 344 kts | 311° |
| 2026-04-27 10:13 | 43.11443 | -2.42930 | 18072 ft | 329 kts | 314° |
| 2026-04-27 10:14 | 43.13117 | -2.44964 | 17944 ft | 313 kts | 312° |
| 2026-04-27 10:14 | 43.14242 | -2.47369 | 17822 ft | 292 kts | 291° |
| 2026-04-27 10:14 | 43.15028 | -2.49861 | 17716 ft | 278 kts | 292° |
| 2026-04-27 10:14 | 43.15828 | -2.52198 | 17594 ft | 264 kts | 294° |
| 2026-04-27 10:15 | 43.16824 | -2.54264 | 17378 ft | 257 kts | 310° |
| 2026-04-27 10:15 | 43.18033 | -2.56056 | 16888 ft | 260 kts | 310° |
| 2026-04-27 10:15 | 43.19280 | -2.57903 | 16298 ft | 267 kts | 310° |
| 2026-04-27 10:15 | 43.20532 | -2.59773 | 15885 ft | 266 kts | 307° |
| 2026-04-27 10:16 | 43.21460 | -2.61889 | 15498 ft | 261 kts | 292° |
| 2026-04-27 10:16 | 43.22222 | -2.64136 | 15127 ft | 259 kts | 296° |
| 2026-04-27 10:16 | 43.23358 | -2.66046 | 14695 ft | 263 kts | 324° |
| 2026-04-27 10:16 | 43.24464 | -2.66804 | 14430 ft | 265 kts | 344° |
| 2026-04-27 10:17 | 43.26290 | -2.66917 | 14027 ft | 266 kts | 13° |
| 2026-04-27 10:17 | 43.27944 | -2.65818 | 13588 ft | 266 kts | 42° |
| 2026-04-27 10:17 | 43.29003 | -2.63791 | 13163 ft | 263 kts | 72° |
| 2026-04-27 10:17 | 43.29101 | -2.60564 | 12610 ft | 257 kts | 107° |
| 2026-04-27 10:18 | 43.28537 | -2.58256 | 12225 ft | 255 kts | 111° |
| 2026-04-27 10:18 | 43.28115 | -2.56715 | 11960 ft | 254 kts | 112° |
| 2026-04-27 10:18 | 43.27484 | -2.54464 | 11582 ft | 253 kts | 112° |
| 2026-04-27 10:18 | 43.26856 | -2.52252 | 11239 ft | 251 kts | 112° |
| 2026-04-27 10:19 | 43.26223 | -2.50034 | 10882 ft | 249 kts | 112° |
| 2026-04-27 10:19 | 43.25592 | -2.47827 | 10531 ft | 248 kts | 112° |
| 2026-04-27 10:19 | 43.24966 | -2.45632 | 10189 ft | 246 kts | 112° |
| 2026-04-27 10:19 | 43.24340 | -2.43457 | 9832 ft | 244 kts | 113° |
| 2026-04-27 10:20 | 43.23716 | -2.41295 | 9456 ft | 243 kts | 112° |
| 2026-04-27 10:20 | 43.23095 | -2.39153 | 9097 ft | 240 kts | 112° |
| 2026-04-27 10:20 | 43.22487 | -2.37043 | 8665 ft | 238 kts | 113° |
| 2026-04-27 10:20 | 43.21882 | -2.34933 | 8138 ft | 238 kts | 113° |
| 2026-04-27 10:21 | 43.21282 | -2.32826 | 7710 ft | 236 kts | 112° |
| 2026-04-27 10:21 | 43.20685 | -2.30738 | 7271 ft | 234 kts | 112° |
| 2026-04-27 10:21 | 43.20091 | -2.28658 | 6819 ft | 233 kts | 112° |
| 2026-04-27 10:21 | 43.19377 | -2.26683 | 6358 ft | 230 kts | 133° |
| 2026-04-27 10:22 | 43.18074 | -2.25502 | 6242 ft | 228 kts | 166° |
| 2026-04-27 10:22 | 43.16517 | -2.25483 | 6089 ft | 225 kts | 198° |
| 2026-04-27 10:22 | 43.15222 | -2.26627 | 5998 ft | 221 kts | 230° |
| 2026-04-27 10:22 | 43.14641 | -2.28467 | 5883 ft | 207 kts | 264° |
| 2026-04-27 10:23 | 43.14534 | -2.30364 | 5816 ft | 195 kts | 257° |
| 2026-04-27 10:23 | 43.14128 | -2.32095 | 5776 ft | 189 kts | 246° |
| 2026-04-27 10:23 | 43.13628 | -2.33789 | 5734 ft | 194 kts | 245° |
| 2026-04-27 10:23 | 43.13121 | -2.35490 | 5621 ft | 192 kts | 245° |
| 2026-04-27 10:24 | 43.12632 | -2.37158 | 5284 ft | 189 kts | 245° |
| 2026-04-27 10:24 | 43.12137 | -2.38850 | 4876 ft | 192 kts | 248° |
| 2026-04-27 10:24 | 43.11937 | -2.40649 | 4456 ft | 193 kts | 266° |
| 2026-04-27 10:24 | 43.12004 | -2.42478 | 4001 ft | 195 kts | 286° |
| 2026-04-27 10:25 | 43.12640 | -2.44119 | 3641 ft | 193 kts | 302° |
| 2026-04-27 10:25 | 43.13353 | -2.45655 | 3276 ft | 192 kts | 302° |
| 2026-04-27 10:25 | 43.14026 | -2.47148 | 3195 ft | 177 kts | 300° |
| 2026-04-27 10:25 | 43.14620 | -2.48599 | 3172 ft | 175 kts | 298° |
| 2026-04-27 10:26 | 43.15202 | -2.50113 | 3263 ft | 191 kts | 296° |
| 2026-04-27 10:26 | 43.15826 | -2.51778 | 4089 ft | 197 kts | 295° |
| 2026-04-27 10:26 | 43.16436 | -2.53447 | 5093 ft | 196 kts | 294° |
| 2026-04-27 10:26 | 43.17047 | -2.55125 | 5373 ft | 196 kts | 294° |
| 2026-04-27 10:27 | 43.17661 | -2.56821 | 5470 ft | 203 kts | 294° |
| 2026-04-27 10:27 | 43.18286 | -2.58548 | 5475 ft | 201 kts | 294° |
| 2026-04-27 10:27 | 43.18883 | -2.60193 | 5429 ft | 183 kts | 294° |
| 2026-04-27 10:27 | 43.19428 | -2.61694 | 5216 ft | 169 kts | 293° |
| 2026-04-27 10:28 | 43.19935 | -2.63100 | 4972 ft | 159 kts | 293° |
| 2026-04-27 10:28 | 43.20414 | -2.64414 | 4728 ft | 151 kts | 295° |
| 2026-04-27 10:28 | 43.20886 | -2.65704 | 4525 ft | 155 kts | 294° |
| 2026-04-27 10:28 | 43.21369 | -2.67040 | 4297 ft | 158 kts | 294° |
| 2026-04-27 10:29 | 43.21858 | -2.68392 | 4040 ft | 158 kts | 295° |
| 2026-04-27 10:29 | 43.22340 | -2.69720 | 3799 ft | 154 kts | 295° |
| 2026-04-27 10:29 | 43.22817 | -2.71037 | 3581 ft | 155 kts | 296° |
| 2026-04-27 10:29 | 43.23296 | -2.72355 | 3343 ft | 154 kts | 296° |
| 2026-04-27 10:30 | 43.23771 | -2.73660 | 3119 ft | 153 kts | 296° |
| 2026-04-27 10:30 | 43.24245 | -2.74966 | 2890 ft | 153 kts | 296° |
| 2026-04-27 10:30 | 43.24718 | -2.76270 | 2642 ft | 151 kts | 297° |
| 2026-04-27 10:30 | 43.25185 | -2.77551 | 2413 ft | 149 kts | 297° |
| 2026-04-27 10:31 | 43.25651 | -2.78832 | 2198 ft | 151 kts | 297° |
| 2026-04-27 10:31 | 43.26120 | -2.80120 | 1973 ft | 151 kts | 297° |
| 2026-04-27 10:31 | 43.26586 | -2.81400 | 1749 ft | 149 kts | 297° |
| 2026-04-27 10:31 | 43.27050 | -2.82675 | 1525 ft | 149 kts | 298° |
| 2026-04-27 10:32 | 43.27507 | -2.83929 | 1320 ft | 150 kts | 298° |
| 2026-04-27 10:32 | 43.27970 | -2.85203 | 1071 ft | 149 kts | 299° |
| 2026-04-27 10:32 | 43.28437 | -2.86476 | 856 ft | 148 kts | 297° |
| 2026-04-27 10:32 | 43.28888 | -2.87764 | 622 ft | 151 kts | 297° |
| 2026-04-27 10:33 | 43.29354 | -2.89051 | 337 ft | 151 kts | 298° |
| 2026-04-27 10:33 | 43.29827 | -2.90305 | 138 ft | 143 kts | 299° |
| 2026-04-27 10:33 | 43.30218 | -2.91341 | 126 ft | 101 kts | 296° |
| 2026-04-27 10:33 | 43.30427 | -2.91926 | 124 ft | 45 kts | 297° |
| 2026-04-27 10:34 | 43.30522 | -2.92187 | 125 ft | 25 kts | 297° |
| 2026-04-27 10:34 | 43.30572 | -2.92328 | 125 ft | 14 kts | 296° |
| 2026-04-27 10:34 | 43.30615 | -2.92426 | 123 ft | 10 kts | 317° |
| 2026-04-27 10:34 | 43.30675 | -2.92470 | 124 ft | 10 kts | 338° |
| 2026-04-27 10:35 | 43.30738 | -2.92500 | 123 ft | 10 kts | 346° |
| 2026-04-27 10:35 | 43.30794 | -2.92471 | 125 ft | 9 kts | 65° |
| 2026-04-27 10:35 | 43.30782 | -2.92386 | 123 ft | 9 kts | 116° |
| 2026-04-27 10:35 | 43.30752 | -2.92302 | 124 ft | 11 kts | 116° |
| 2026-04-27 10:36 | 43.30712 | -2.92191 | 127 ft | 16 kts | 116° |
| 2026-04-27 10:36 | 43.30654 | -2.92033 | 126 ft | 19 kts | 118° |
| 2026-04-27 10:36 | 43.30596 | -2.91875 | 124 ft | 18 kts | 116° |
| 2026-04-27 10:36 | 43.30538 | -2.91718 | 123 ft | 18 kts | 116° |
| 2026-04-27 10:37 | 43.30484 | -2.91572 | 125 ft | 17 kts | 117° |
| 2026-04-27 10:37 | 43.30432 | -2.91428 | 124 ft | 16 kts | 116° |
| 2026-04-27 10:37 | 43.30382 | -2.91292 | 126 ft | 16 kts | 116° |
| 2026-04-27 10:37 | 43.30336 | -2.91168 | 125 ft | 10 kts | 117° |
| 2026-04-27 10:38 | 43.30310 | -2.91086 | 127 ft | 9 kts | 103° |
| 2026-04-27 10:38 | 43.30335 | -2.91018 | 126 ft | 8 kts | 34° |
| 2026-04-27 10:38 | 43.30382 | -2.90984 | 122 ft | 8 kts | 29° |
| 2026-04-27 10:38 | 43.30405 | -2.90922 | 125 ft | 7 kts | 84° |
| 2026-04-27 10:39 | 43.30408 | -2.90852 | 124 ft | 7 kts | 86° |
| 2026-04-27 10:39 | 43.30402 | -2.90786 | 126 ft | 7 kts | 112° |
| 2026-04-27 10:39 | 43.30381 | -2.90727 | 126 ft | 5 kts | 117° |
| 2026-04-27 10:39 | 43.30369 | -2.90689 | 125 ft | 3 kts | 104° |
| 2026-04-27 10:40 | 43.30380 | -2.90666 | 122 ft | 3 kts | 41° |
| 2026-04-27 10:40 | 43.30399 | -2.90651 | 125 ft | 3 kts | 27° |
| 2026-04-27 10:40 | 43.30415 | -2.90640 | 124 ft | 2 kts | 26° |
| 2026-04-27 10:40 | 43.30427 | -2.90632 | 123 ft | 2 kts | 26° |